createdAt,value
2023-08-12T00:01:51.451Z,15.44
2023-08-12T00:04:17.835Z,15.43
2023-08-12T00:06:44.382Z,15.33
2023-08-12T00:09:16.002Z,15.24
2023-08-12T00:11:52.402Z,15.19
2023-08-12T00:14:18.766Z,15.10
2023-08-12T00:16:45.133Z,15.09
2023-08-12T00:19:11.498Z,15.05
2023-08-12T00:21:37.886Z,15.00
2023-08-12T00:24:05.420Z,14.98
2023-08-12T00:26:31.806Z,14.88
2023-08-12T00:28:58.191Z,14.86
2023-08-12T00:31:24.550Z,14.80
2023-08-12T00:33:51.953Z,14.85
2023-08-12T00:36:18.380Z,14.77
2023-08-12T00:38:45.314Z,14.83
2023-08-12T00:41:11.720Z,14.76
2023-08-12T00:43:38.134Z,14.70
2023-08-12T00:46:05.297Z,14.67
2023-08-12T00:48:31.805Z,14.64
2023-08-12T00:50:58.152Z,14.60
2023-08-12T00:53:24.808Z,14.58
2023-08-12T00:55:51.217Z,14.58
2023-08-12T00:58:17.725Z,14.56
2023-08-12T01:00:44.079Z,14.49
2023-08-12T01:03:10.889Z,14.47
2023-08-12T01:05:39.296Z,14.44
2023-08-12T01:08:07.693Z,14.39
2023-08-12T01:10:35.845Z,14.39
2023-08-12T01:13:08.269Z,14.43
2023-08-12T01:15:35.306Z,14.48
2023-08-12T01:18:01.740Z,14.50
2023-08-12T01:20:31.499Z,14.56
2023-08-12T01:22:59.890Z,14.55
2023-08-12T01:25:26.676Z,14.54
2023-08-12T01:27:53.176Z,14.46
2023-08-12T01:30:27.124Z,14.36
2023-08-12T01:32:56.218Z,14.25
2023-08-12T01:35:26.188Z,14.20
2023-08-12T01:37:53.541Z,14.12
2023-08-12T01:40:20.555Z,14.12
2023-08-12T01:42:47.477Z,14.09
2023-08-12T01:45:13.976Z,14.04
2023-08-12T01:47:43.640Z,13.98
2023-08-12T01:50:11.577Z,13.92
2023-08-12T01:52:37.938Z,13.87
2023-08-12T01:55:07.567Z,13.83
2023-08-12T01:57:34.034Z,13.84
2023-08-12T02:00:01.708Z,13.83
2023-08-12T02:02:28.063Z,13.82
2023-08-12T02:04:54.678Z,13.76
2023-08-12T02:07:21.007Z,13.70
2023-08-12T02:09:47.379Z,13.68
2023-08-12T02:12:13.715Z,13.63
2023-08-12T02:14:40.145Z,13.58
2023-08-12T02:17:06.984Z,13.59
2023-08-12T02:19:34.530Z,13.52
2023-08-12T02:22:02.723Z,13.50
2023-08-12T02:24:29.177Z,13.45
2023-08-12T02:26:55.526Z,13.41
2023-08-12T02:29:21.886Z,13.38
2023-08-12T02:31:50.439Z,13.35
2023-08-12T02:34:16.933Z,13.36
2023-08-12T02:36:43.646Z,13.36
2023-08-12T02:39:10.351Z,13.36
2023-08-12T02:41:36.692Z,13.39
2023-08-12T02:44:03.544Z,13.38
2023-08-12T02:46:30.015Z,13.32
2023-08-12T02:48:56.341Z,13.29
2023-08-12T02:51:22.753Z,13.22
2023-08-12T02:53:49.099Z,13.22
2023-08-12T02:56:19.447Z,13.14
2023-08-12T02:58:45.796Z,13.11
2023-08-12T03:01:12.227Z,13.09
2023-08-12T03:03:38.636Z,13.06
2023-08-12T03:06:05.131Z,13.05
2023-08-12T03:08:31.532Z,13.01
2023-08-12T03:11:01.944Z,13.00
2023-08-12T03:13:29.047Z,13.00
2023-08-12T03:15:55.563Z,13.00
2023-08-12T03:18:22.167Z,12.99
2023-08-12T03:20:48.569Z,12.93
2023-08-12T03:23:15.243Z,12.97
2023-08-12T03:25:42.387Z,13.10
2023-08-12T03:28:08.947Z,13.21
2023-08-12T03:30:35.312Z,13.05
2023-08-12T03:33:01.675Z,13.00
2023-08-12T03:35:28.035Z,13.00
2023-08-12T03:37:55.149Z,13.01
2023-08-12T03:40:21.634Z,13.03
2023-08-12T03:42:48.344Z,13.07
2023-08-12T03:45:15.347Z,12.97
2023-08-12T03:47:41.795Z,12.91
2023-08-12T03:50:08.413Z,12.86
2023-08-12T03:52:34.820Z,12.86
2023-08-12T03:55:01.220Z,12.88
2023-08-12T03:57:27.579Z,12.90
2023-08-12T03:59:53.918Z,12.91
2023-08-12T04:02:20.266Z,12.93
2023-08-12T04:04:46.658Z,12.98
2023-08-12T04:07:13.458Z,12.93
2023-08-12T04:09:40.019Z,13.04
2023-08-12T04:12:06.533Z,13.11
2023-08-12T04:14:32.906Z,13.12
2023-08-12T04:16:59.391Z,13.17
2023-08-12T04:19:25.850Z,13.16
2023-08-12T04:21:52.383Z,13.17
2023-08-12T04:24:18.728Z,13.22
2023-08-12T04:26:45.170Z,13.19
2023-08-12T04:29:11.495Z,13.19
2023-08-12T04:31:38.118Z,13.29
2023-08-12T04:34:05.099Z,13.24
2023-08-12T04:36:31.479Z,13.27
2023-08-12T04:38:57.842Z,13.35
2023-08-12T04:41:25.266Z,13.40
2023-08-12T04:43:51.698Z,13.39
2023-08-12T04:46:18.957Z,13.49
2023-08-12T04:48:45.310Z,13.51
2023-08-12T04:51:11.748Z,13.56
2023-08-12T04:53:38.117Z,13.70
2023-08-12T04:56:04.555Z,13.78
2023-08-12T04:58:30.934Z,13.88
2023-08-12T05:00:58.197Z,13.99
2023-08-12T05:03:24.878Z,14.12
2023-08-12T05:05:51.947Z,14.20
2023-08-12T05:08:18.897Z,14.37
2023-08-12T05:10:48.054Z,14.51
2023-08-12T05:13:14.419Z,14.66
2023-08-12T05:15:40.970Z,14.78
2023-08-12T05:18:07.602Z,14.90
2023-08-12T05:20:33.992Z,14.98
2023-08-12T05:23:00.365Z,15.10
2023-08-12T05:25:26.905Z,15.22
2023-08-12T05:27:53.242Z,15.29
2023-08-12T05:30:19.628Z,15.33
2023-08-12T05:32:54.116Z,15.40
2023-08-12T05:35:20.515Z,15.48
2023-08-12T05:37:46.934Z,15.58
2023-08-12T05:40:13.311Z,15.68
2023-08-12T05:42:39.858Z,15.80
2023-08-12T05:45:08.601Z,15.86
2023-08-12T05:47:35.350Z,15.98
2023-08-12T05:50:01.732Z,16.07
2023-08-12T05:52:28.196Z,16.25
2023-08-12T05:54:54.573Z,16.28
2023-08-12T05:57:20.978Z,16.37
2023-08-12T05:59:47.318Z,16.43
2023-08-12T06:02:13.985Z,16.51
2023-08-12T06:04:40.612Z,16.61
2023-08-12T06:07:06.970Z,16.69
2023-08-12T06:09:33.343Z,16.84
2023-08-12T06:11:59.681Z,16.92
2023-08-12T06:14:26.038Z,16.88
2023-08-12T06:16:59.402Z,16.96
2023-08-12T06:19:25.958Z,17.03
2023-08-12T06:21:52.953Z,17.11
2023-08-12T06:24:19.411Z,17.26
2023-08-12T06:26:45.842Z,17.49
2023-08-12T06:29:12.197Z,17.51
2023-08-12T06:31:38.663Z,17.60
2023-08-12T06:34:05.223Z,17.68
2023-08-12T06:36:31.648Z,17.80
2023-08-12T06:38:58.076Z,17.95
2023-08-12T06:41:24.469Z,18.11
2023-08-12T06:43:51.112Z,18.26
2023-08-12T06:46:18.705Z,18.37
2023-08-12T06:48:45.089Z,18.52
2023-08-12T06:51:11.596Z,18.58
2023-08-12T06:53:39.300Z,18.72
2023-08-12T06:56:05.903Z,18.83
2023-08-12T06:58:32.295Z,19.01
2023-08-12T07:01:00.294Z,19.07
2023-08-12T07:03:42.194Z,19.28
2023-08-12T07:06:08.638Z,19.34
2023-08-12T07:08:41.199Z,19.32
2023-08-12T07:11:07.679Z,19.49
2023-08-12T07:13:53.482Z,19.65
2023-08-12T07:16:20.861Z,19.68
2023-08-12T07:18:47.350Z,19.68
2023-08-12T07:21:14.733Z,19.87
2023-08-12T07:24:02.100Z,20.05
2023-08-12T07:26:30.656Z,20.26
2023-08-12T07:29:05.383Z,20.38
2023-08-12T07:31:32.796Z,20.52
2023-08-12T07:34:08.266Z,20.73
2023-08-12T07:36:34.708Z,20.92
2023-08-12T07:39:15.376Z,21.16
2023-08-12T07:41:41.988Z,21.23
2023-08-12T07:44:13.505Z,21.40
2023-08-12T07:46:41.876Z,21.48
2023-08-12T07:49:14.500Z,21.59
2023-08-12T07:51:59.508Z,21.85
2023-08-12T07:54:31.024Z,21.81
2023-08-12T07:57:05.513Z,21.97
2023-08-12T07:59:35.987Z,22.15
2023-08-12T08:02:09.378Z,22.24
2023-08-12T08:04:35.793Z,22.41
2023-08-12T08:07:05.292Z,22.56
2023-08-12T08:09:34.784Z,22.51
2023-08-12T08:12:01.790Z,22.62
2023-08-12T08:14:35.327Z,22.64
2023-08-12T08:17:01.748Z,22.59
2023-08-12T08:19:29.840Z,22.57
2023-08-12T08:21:56.564Z,22.74
2023-08-12T08:24:22.946Z,22.76
2023-08-12T08:26:49.372Z,22.83
2023-08-12T08:29:15.721Z,23.09
2023-08-12T08:31:42.136Z,23.19
2023-08-12T08:34:08.577Z,23.17
2023-08-12T08:36:35.008Z,23.08
2023-08-12T08:39:01.400Z,23.34
2023-08-12T08:41:28.748Z,23.30
2023-08-12T08:44:10.616Z,23.35
2023-08-12T08:46:37.149Z,23.36
2023-08-12T08:49:05.182Z,23.47
2023-08-12T08:51:32.902Z,23.57
2023-08-12T08:54:03.918Z,23.72
2023-08-12T08:56:31.841Z,23.72
2023-08-12T08:58:59.953Z,23.71
2023-08-12T09:01:27.949Z,23.86
2023-08-12T09:03:54.668Z,23.98
2023-08-12T09:06:22.327Z,23.99
2023-08-12T09:08:49.348Z,24.08
2023-08-12T09:11:18.049Z,24.29
2023-08-12T09:13:44.486Z,24.54
2023-08-12T09:16:11.559Z,24.64
2023-08-12T09:18:38.947Z,24.75
2023-08-12T09:21:05.353Z,25.04
2023-08-12T09:23:35.859Z,25.11
2023-08-12T09:26:02.500Z,25.22
2023-08-12T09:28:29.685Z,25.45
2023-08-12T09:30:58.121Z,25.61
2023-08-12T09:33:25.291Z,25.97
2023-08-12T09:35:51.646Z,25.97
2023-08-12T09:38:17.996Z,25.98
2023-08-12T09:40:45.311Z,26.19
2023-08-12T09:43:14.232Z,26.43
2023-08-12T09:45:41.112Z,26.75
2023-08-12T09:48:09.645Z,26.89
2023-08-12T09:50:37.424Z,27.10
2023-08-12T09:53:04.600Z,27.02
2023-08-12T09:55:32.744Z,27.02
2023-08-12T09:58:00.340Z,27.33
2023-08-12T10:00:26.772Z,27.64
2023-08-12T10:02:54.611Z,27.76
2023-08-12T10:05:27.247Z,27.43
2023-08-12T10:07:54.154Z,27.48
2023-08-12T10:10:21.403Z,27.20
2023-08-12T10:12:49.161Z,27.06
2023-08-12T10:15:16.542Z,26.90
2023-08-12T10:17:47.204Z,27.33
2023-08-12T10:20:15.184Z,27.10
2023-08-12T10:22:43.924Z,27.16
2023-08-12T10:25:10.374Z,27.19
2023-08-12T10:27:42.451Z,27.21
2023-08-12T10:30:11.341Z,27.36
2023-08-12T10:32:43.361Z,27.21
2023-08-12T10:35:16.999Z,27.26
2023-08-12T10:37:43.648Z,27.63
2023-08-12T10:40:20.609Z,27.48
2023-08-12T10:42:49.775Z,27.66
2023-08-12T10:45:17.177Z,27.37
2023-08-12T10:47:52.818Z,27.62
2023-08-12T10:50:20.972Z,27.26
2023-08-12T10:52:56.575Z,27.32
2023-08-12T10:55:29.777Z,27.23
2023-08-12T10:57:59.378Z,27.10
2023-08-12T11:00:42.542Z,27.23
2023-08-12T11:03:21.306Z,27.36
2023-08-12T11:05:48.871Z,26.76
2023-08-12T11:08:43.855Z,26.86
2023-08-12T11:11:20.382Z,27.30
2023-08-12T11:13:58.811Z,27.15
2023-08-12T11:16:43.991Z,27.24
2023-08-12T11:19:26.646Z,27.33
2023-08-12T11:22:01.146Z,27.71
2023-08-12T11:24:41.720Z,27.86
2023-08-12T11:27:15.214Z,27.85
2023-08-12T11:29:54.975Z,28.17
2023-08-12T11:32:21.678Z,27.80
2023-08-12T11:34:49.582Z,27.55
2023-08-12T11:37:17.398Z,27.55
2023-08-12T11:39:52.384Z,27.81
2023-08-12T11:42:18.755Z,27.91
2023-08-12T11:44:45.106Z,28.09
2023-08-12T11:47:11.468Z,27.88
2023-08-12T11:49:41.868Z,28.01
2023-08-12T11:52:10.193Z,28.38
2023-08-12T11:54:39.094Z,28.19
2023-08-12T11:57:05.715Z,28.09
2023-08-12T11:59:32.455Z,27.74
2023-08-12T12:01:58.854Z,27.65
2023-08-12T12:04:25.296Z,27.30
2023-08-12T12:06:51.794Z,27.58
2023-08-12T12:09:19.476Z,27.45
2023-08-12T12:11:53.295Z,26.93
2023-08-12T12:14:21.963Z,27.12
2023-08-12T12:16:49.861Z,27.18
2023-08-12T12:19:16.843Z,26.86
2023-08-12T12:21:43.873Z,26.40
2023-08-12T12:24:10.372Z,26.34
2023-08-12T12:26:37.126Z,26.42
2023-08-12T12:29:04.975Z,26.04
2023-08-12T12:31:32.737Z,26.20
2023-08-12T12:33:59.133Z,26.15
2023-08-12T12:36:29.667Z,26.01
2023-08-12T12:39:07.653Z,25.89
2023-08-12T12:41:37.182Z,25.53
2023-08-12T12:44:04.697Z,25.56
2023-08-12T12:46:37.197Z,25.64
2023-08-12T12:49:04.611Z,25.52
2023-08-12T12:51:31.996Z,25.78
2023-08-12T12:53:58.435Z,25.66
2023-08-12T12:56:24.981Z,25.87
2023-08-12T12:58:51.553Z,26.12
2023-08-12T13:01:17.943Z,26.37
2023-08-12T13:03:44.904Z,26.31
2023-08-12T13:06:11.416Z,26.14
2023-08-12T13:08:43.677Z,26.02
2023-08-12T13:11:11.119Z,25.89
2023-08-12T13:13:37.771Z,26.01
2023-08-12T13:16:05.398Z,25.64
2023-08-12T13:18:35.468Z,26.08
2023-08-12T13:21:01.831Z,26.03
2023-08-12T13:23:28.273Z,26.03
2023-08-12T13:25:54.688Z,26.18
2023-08-12T13:28:21.208Z,26.13
2023-08-12T13:30:48.559Z,26.64
2023-08-12T13:33:15.013Z,26.41
2023-08-12T13:35:41.397Z,26.41
2023-08-12T13:38:08.769Z,26.58
2023-08-12T13:40:36.135Z,26.51
2023-08-12T13:43:03.299Z,26.55
2023-08-12T13:45:30.132Z,26.56
2023-08-12T13:47:56.741Z,26.71
2023-08-12T13:50:24.320Z,26.64
2023-08-12T13:52:51.616Z,26.99
2023-08-12T13:55:18.173Z,26.79
2023-08-12T13:57:44.901Z,26.91
2023-08-12T14:00:12.464Z,27.06
2023-08-12T14:02:40.567Z,26.82
2023-08-12T14:05:07.731Z,26.70
2023-08-12T14:07:34.178Z,26.81
2023-08-12T14:31:31.593Z,26.52
2023-08-12T14:34:04.421Z,26.62
2023-08-12T14:36:32.829Z,26.71
2023-08-12T14:39:06.334Z,26.61
2023-08-12T14:41:33.978Z,27.53
2023-08-12T14:44:07.236Z,27.54
2023-08-12T14:46:43.789Z,27.68
2023-08-12T14:49:10.285Z,27.86
2023-08-12T14:51:41.671Z,27.72
2023-08-12T14:54:08.842Z,28.13
2023-08-12T14:56:36.236Z,28.52
2023-08-12T14:59:03.269Z,28.69
2023-08-12T15:01:29.616Z,28.51
2023-08-12T15:03:57.110Z,28.81
2023-08-12T15:06:23.549Z,28.93
2023-08-12T15:08:50.246Z,29.00
2023-08-12T15:11:16.894Z,28.77
2023-08-12T15:13:43.321Z,28.59
2023-08-12T15:16:12.112Z,28.11
2023-08-12T15:18:38.540Z,27.87
2023-08-12T15:21:04.892Z,28.08
2023-08-12T15:23:31.680Z,28.06
2023-08-12T15:25:58.026Z,28.34
2023-08-12T15:28:24.461Z,28.69
2023-08-12T15:30:51.087Z,28.43
2023-08-12T15:33:17.839Z,28.28
2023-08-12T15:35:44.696Z,28.19
2023-08-12T15:38:12.050Z,28.41
2023-08-12T15:40:41.655Z,28.64
2023-08-12T15:43:07.991Z,28.46
2023-08-12T15:45:34.331Z,28.78
2023-08-12T15:48:00.800Z,28.95
2023-08-12T15:50:35.696Z,28.97
2023-08-12T15:53:02.080Z,28.78
2023-08-12T15:55:28.769Z,28.95
2023-08-12T15:57:55.262Z,29.04
2023-08-12T16:00:21.604Z,28.96
2023-08-12T16:02:49.151Z,28.92
2023-08-12T16:05:18.426Z,28.52
2023-08-12T16:07:44.872Z,28.34
2023-08-12T16:10:14.249Z,28.34
2023-08-12T16:12:40.750Z,28.46
2023-08-12T16:15:07.662Z,28.61
2023-08-12T16:17:34.038Z,28.47
2023-08-12T16:20:00.415Z,28.61
2023-08-12T16:22:26.749Z,28.40
2023-08-12T16:24:53.111Z,28.36
2023-08-12T16:27:20.276Z,28.04
2023-08-12T16:29:46.770Z,28.20
2023-08-12T16:32:13.331Z,27.98
2023-08-12T16:34:39.771Z,27.84
2023-08-12T16:37:20.310Z,27.60
2023-08-12T16:39:47.067Z,27.72
2023-08-12T16:42:13.757Z,27.71
2023-08-12T16:44:40.378Z,27.42
2023-08-12T16:47:13.054Z,27.32
2023-08-12T16:49:40.477Z,27.08
2023-08-12T16:52:07.004Z,27.04
2023-08-12T20:35:57.521Z,23.21
2023-08-12T20:38:25.859Z,23.25
2023-08-12T20:40:52.209Z,23.14
2023-08-12T20:43:18.610Z,23.10
2023-08-12T20:45:44.991Z,23.13
2023-08-12T20:48:11.428Z,22.97
2023-08-12T20:50:51.189Z,22.91
2023-08-12T20:53:25.740Z,22.67
2023-08-12T20:55:52.438Z,22.52
2023-08-12T20:58:25.907Z,22.65
2023-08-12T21:00:55.457Z,22.69
2023-08-12T21:03:22.955Z,22.54
2023-08-12T21:05:55.413Z,22.55
2023-08-12T21:08:27.351Z,22.33
2023-08-12T21:10:54.411Z,22.37
2023-08-12T21:13:21.558Z,22.26
2023-08-12T21:15:47.907Z,22.24
2023-08-12T21:18:16.730Z,22.22
2023-08-12T21:20:44.012Z,22.23
2023-08-12T21:23:10.376Z,22.21
2023-08-12T21:25:36.809Z,22.07
2023-08-12T21:28:03.343Z,22.11
2023-08-12T21:30:29.863Z,22.28
2023-08-12T21:32:57.302Z,22.51
2023-08-12T21:35:23.680Z,21.65
2023-08-12T21:37:50.020Z,21.25
2023-08-12T21:40:16.455Z,20.75
2023-08-12T21:42:42.972Z,20.53
2023-08-12T21:45:09.498Z,20.71
2023-08-12T21:47:35.909Z,20.68
2023-08-12T21:50:02.270Z,20.61
2023-08-12T21:52:28.939Z,20.59
2023-08-12T21:54:55.305Z,20.63
2023-08-12T21:57:21.662Z,20.61
2023-08-12T21:59:48.014Z,20.49
2023-08-12T22:02:23.037Z,20.44
2023-08-12T22:04:49.397Z,20.46
2023-08-12T22:07:15.746Z,20.52
2023-08-12T22:09:42.086Z,20.38
2023-08-12T22:12:08.687Z,20.44
2023-08-12T22:14:35.488Z,20.60
2023-08-12T22:17:03.624Z,20.69
2023-08-12T22:19:30.189Z,20.61
2023-08-12T22:22:05.444Z,20.61
2023-08-12T22:24:43.504Z,20.60
2023-08-12T22:27:09.862Z,20.61
2023-08-12T22:29:39.225Z,20.48
2023-08-12T22:32:05.616Z,20.43
2023-08-12T22:34:31.968Z,20.54
2023-08-12T22:36:58.308Z,20.52
2023-08-12T22:39:25.395Z,20.45
2023-08-12T22:41:51.772Z,20.63
2023-08-12T22:44:18.111Z,20.69
2023-08-12T22:46:44.506Z,20.44
2023-08-12T22:49:10.909Z,20.40
2023-08-12T22:51:37.864Z,20.36
2023-08-12T22:54:05.425Z,20.35
2023-08-12T22:56:31.941Z,20.44
2023-08-12T22:59:01.066Z,20.59
2023-08-12T23:01:27.670Z,20.61
2023-08-12T23:03:54.002Z,20.60
2023-08-12T23:06:20.436Z,20.57
2023-08-12T23:08:46.780Z,20.52
2023-08-12T23:11:13.142Z,20.49
2023-08-12T23:13:39.478Z,20.51
2023-08-12T23:16:06.282Z,20.51
2023-08-12T23:18:32.626Z,20.46
2023-08-12T23:21:00.079Z,20.52
2023-08-12T23:23:26.402Z,20.42
2023-08-12T23:25:52.796Z,20.28
2023-08-12T23:28:19.822Z,20.29
2023-08-12T23:30:46.256Z,20.22
2023-08-12T23:33:12.786Z,20.20
2023-08-12T23:35:39.183Z,20.34
2023-08-12T23:38:05.542Z,20.33
2023-08-12T23:40:31.956Z,19.62
2023-08-12T23:42:58.382Z,20.15
2023-08-12T23:45:25.778Z,20.18
2023-08-12T23:47:52.196Z,19.42
2023-08-12T23:50:18.722Z,19.93
2023-08-12T23:52:45.120Z,19.93
2023-08-12T23:55:11.517Z,19.99
2023-08-12T23:57:37.943Z,19.98
